Time;durP1;ratioP1;P1;durP2;ratioP2;P2;SDS_P1;SDS_P2;PMS_P1;PMS_P2;Temp;Humidity;BMP_temperature;BMP_pressure;BME280_temperature;BME280_humidity;BME280_pressure;Samples;Min_cycle;Max_cycle;Signal;HPM_P1;HPM_P2
2020/12/07 00:00:24;;;;;;;18.52;17.52;;;4.50;91.80;;;;;;5034215;28;20189;-76
2020/12/07 00:02:50;;;;;;;18.35;17.35;;;4.50;91.00;;;;;;5034104;28;20292;-76
2020/12/07 00:05:17;;;;;;;18.65;17.55;;;4.50;91.10;;;;;;5034079;28;20202;-76
2020/12/07 00:07:43;;;;;;;18.20;17.20;;;4.40;91.00;;;;;;5034557;28;20221;-76
2020/12/07 00:10:10;;;;;;;19.27;17.85;;;4.40;91.00;;;;;;5053626;28;20694;-76
2020/12/07 00:12:37;;;;;;;19.45;18.25;;;4.40;91.20;;;;;;5053866;28;20197;-76
2020/12/07 00:15:05;;;;;;;18.90;17.67;;;4.40;91.10;;;;;;5053820;28;20196;-76
2020/12/07 00:17:31;;;;;;;19.08;17.88;;;4.40;90.90;;;;;;5053340;28;20221;-76
2020/12/07 00:19:58;;;;;;;18.83;17.65;;;4.40;91.40;;;;;;5033868;28;20658;-76
2020/12/07 00:22:26;;;;;;;19.20;17.98;;;4.40;91.10;;;;;;5033719;28;20575;-76
2020/12/07 00:24:53;;;;;;;19.35;18.25;;;4.40;91.00;;;;;;5033448;28;20209;-76
2020/12/07 00:27:24;;;;;;;19.10;18.10;;;4.40;91.40;;;;;;5033438;28;20217;-76
2020/12/07 00:29:50;;;;;;;19.63;18.08;;;4.40;91.00;;;;;;5050996;28;20213;-76
2020/12/07 00:32:17;;;;;;;18.02;17.02;;;4.50;90.80;;;;;;5043312;28;20193;-76
2020/12/07 00:34:43;;;;;;;19.10;18.00;;;4.50;90.60;;;;;;5051707;28;20199;-76
2020/12/07 00:37:10;;;;;;;17.23;16.33;;;4.60;90.10;;;;;;5051178;28;20226;-78
2020/12/07 00:39:37;;;;;;;16.88;15.98;;;4.60;89.80;;;;;;5053571;28;20196;-76
2020/12/07 00:42:03;;;;;;;16.75;15.90;;;4.60;89.90;;;;;;5053202;28;20212;-76
2020/12/07 00:44:31;;;;;;;17.88;16.88;;;4.50;90.60;;;;;;5053409;28;20197;-76
2020/12/07 00:46:58;;;;;;;17.63;16.73;;;4.40;90.60;;;;;;5051225;28;20219;-78
2020/12/07 00:49:25;;;;;;;17.70;16.80;;;4.40;91.10;;;;;;5052507;28;20193;-76
2020/12/07 00:51:51;;;;;;;17.10;16.10;;;4.40;90.80;;;;;;5035731;28;20276;-76
2020/12/07 00:54:17;;;;;;;17.80;16.67;;;4.50;90.90;;;;;;5033079;28;20696;-76
2020/12/07 00:56:44;;;;;;;17.88;16.77;;;4.50;90.50;;;;;;5032831;28;20217;-76
2020/12/07 00:59:10;;;;;;;17.17;16.35;;;4.50;90.20;;;;;;5032912;28;20569;-76
2020/12/07 01:01:38;;;;;;;17.52;16.60;;;4.60;90.60;;;;;;5047176;28;20192;-76
2020/12/07 01:04:05;;;;;;;17.60;16.65;;;4.60;90.40;;;;;;5052872;28;20203;-76
2020/12/07 01:06:31;;;;;;;16.90;16.00;;;4.50;90.80;;;;;;5052611;28;20303;-76
2020/12/07 01:08:58;;;;;;;17.02;16.13;;;4.50;90.80;;;;;;5052854;28;20670;-76
2020/12/07 01:11:24;;;;;;;17.13;16.23;;;4.50;90.80;;;;;;5052545;28;20224;-76
2020/12/07 01:13:51;;;;;;;16.05;15.15;;;4.50;93.40;;;;;;5052422;28;20189;-76
2020/12/07 01:16:21;;;;;;;16.05;15.25;;;4.40;93.60;;;;;;5052420;28;20216;-76
2020/12/07 01:18:48;;;;;;;16.23;15.32;;;4.40;94.80;;;;;;5052842;28;20307;-76
2020/12/07 01:21:16;;;;;;;16.02;15.13;;;4.50;93.90;;;;;;5042027;28;20196;-76
2020/12/07 01:23:44;;;;;;;304.45;46.50;;;4.50;93.90;;;;;;5032860;28;20202;-76
2020/12/07 01:26:11;;;;;;;16.05;15.15;;;4.60;93.10;;;;;;5032716;28;20221;-76
2020/12/07 01:28:38;;;;;;;15.43;14.63;;;4.50;93.40;;;;;;5032630;28;20208;-76
2020/12/07 01:31:04;;;;;;;24.08;16.38;;;4.40;96.50;;;;;;5040788;28;20220;-76
2020/12/07 01:33:30;;;;;;;15.30;14.50;;;4.40;95.20;;;;;;5052119;28;20657;-76
2020/12/07 01:35:58;;;;;;;21.98;19.48;;;4.30;96.10;;;;;;5052508;28;20217;-76
2020/12/07 01:38:24;;;;;;;17.48;16.58;;;4.40;96.30;;;;;;5052086;28;20196;-76
2020/12/07 01:40:51;;;;;;;16.65;15.75;;;4.50;94.70;;;;;;5050451;28;20642;-77
2020/12/07 01:43:18;;;;;;;17.05;16.15;;;4.50;93.30;;;;;;5049923;28;20207;-76
2020/12/07 01:45:45;;;;;;;16.83;15.82;;;4.40;93.00;;;;;;5032384;28;20227;-76
2020/12/07 01:48:12;;;;;;;16.80;16.00;;;4.30;92.90;;;;;;5032535;28;20208;-76
2020/12/07 01:50:41;;;;;;;17.05;16.15;;;4.30;94.10;;;;;;5047390;28;20293;-76
2020/12/07 01:53:09;;;;;;;213.93;34.90;;;4.40;92.70;;;;;;5052404;28;20203;-76
2020/12/07 01:55:37;;;;;;;17.10;16.20;;;4.40;92.20;;;;;;5052238;28;20197;-76
2020/12/07 01:58:04;;;;;;;267.45;39.40;;;4.40;92.80;;;;;;5045133;28;20189;-76
2020/12/07 02:00:30;;;;;;;17.05;16.15;;;4.40;94.00;;;;;;5034416;28;20196;-76
2020/12/07 02:02:56;;;;;;;17.05;15.95;;;4.40;93.20;;;;;;5048250;28;20651;-76
2020/12/07 02:05:24;;;;;;;22.30;17.20;;;4.40;92.70;;;;;;5032304;28;20201;-76
2020/12/07 02:08:05;;;;;;;17.10;16.10;;;4.30;92.60;;;;;;5032289;28;20194;-76
2020/12/07 02:10:32;;;;;;;17.38;16.40;;;4.30;92.60;;;;;;5031629;28;20217;-76
2020/12/07 02:12:58;;;;;;;17.30;16.40;;;4.40;92.00;;;;;;5032670;28;20563;-76
2020/12/07 02:15:25;;;;;;;17.20;16.30;;;4.40;91.70;;;;;;5032088;28;20204;-76
2020/12/07 02:17:51;;;;;;;17.10;16.20;;;4.40;91.70;;;;;;5033225;28;20197;-76
2020/12/07 02:20:18;;;;;;;18.00;17.00;;;4.40;91.50;;;;;;5032269;28;20559;-76
2020/12/07 02:22:45;;;;;;;17.67;16.67;;;4.40;91.30;;;;;;5032180;28;20659;-76
2020/12/07 02:25:11;;;;;;;16.88;15.93;;;4.40;91.90;;;;;;5037921;28;20581;-76
2020/12/07 02:27:37;;;;;;;17.60;16.70;;;4.50;91.50;;;;;;5051879;28;20228;-76
2020/12/07 02:30:04;;;;;;;23.13;16.80;;;4.50;91.50;;;;;;5051900;28;20251;-76
2020/12/07 02:32:30;;;;;;;32.63;18.45;;;4.60;90.60;;;;;;5052007;28;20201;-76
2020/12/07 02:34:56;;;;;;;599.60;80.35;;;4.60;90.40;;;;;;5047555;28;20204;-76
2020/12/07 02:37:25;;;;;;;16.10;15.20;;;4.50;91.40;;;;;;5031907;28;20228;-76
2020/12/07 02:39:52;;;;;;;17.05;16.10;;;4.40;92.10;;;;;;5031970;28;20201;-76
2020/12/07 02:42:18;;;;;;;17.23;16.27;;;4.40;91.60;;;;;;5032110;28;20201;-76
2020/12/07 02:44:44;;;;;;;16.70;15.85;;;4.40;91.30;;;;;;5033526;28;20201;-76
2020/12/07 02:47:11;;;;;;;17.55;16.65;;;4.40;91.00;;;;;;5041839;28;20209;-76
2020/12/07 02:49:37;;;;;;;17.10;16.20;;;4.50;90.70;;;;;;5055094;28;20200;-76
2020/12/07 02:52:03;;;;;;;17.45;16.55;;;4.50;91.10;;;;;;5055477;28;20200;-76
2020/12/07 02:54:31;;;;;;;17.20;16.30;;;4.50;91.50;;;;;;5055460;28;20680;-76
2020/12/07 02:56:57;;;;;;;17.25;16.35;;;4.50;91.10;;;;;;5050902;28;20214;-76
2020/12/07 02:59:23;;;;;;;16.63;15.82;;;4.50;91.90;;;;;;5035382;28;20204;-76
2020/12/07 03:01:49;;;;;;;16.70;15.90;;;4.50;92.20;;;;;;5035430;28;20199;-76
2020/12/07 03:04:16;;;;;;;95.05;22.77;;;4.50;91.80;;;;;;5055283;28;20199;-77
2020/12/07 03:06:42;;;;;;;16.08;15.27;;;4.50;91.70;;;;;;5054181;28;20216;-78
2020/12/07 03:09:08;;;;;;;17.95;16.85;;;4.40;92.30;;;;;;5035829;28;20678;-78
2020/12/07 03:11:36;;;;;;;16.90;16.08;;;4.40;91.40;;;;;;5035139;28;20585;-76
2020/12/07 03:14:02;;;;;;;16.83;15.93;;;4.40;91.20;;;;;;5035390;28;20674;-76
2020/12/07 03:16:28;;;;;;;16.77;15.98;;;4.40;91.40;;;;;;5034744;28;20782;-76
2020/12/07 03:18:55;;;;;;;17.20;16.23;;;4.40;91.40;;;;;;5035020;28;20193;-76
2020/12/07 03:21:21;;;;;;;18.10;17.10;;;4.50;90.70;;;;;;5034945;28;20193;-76
2020/12/07 03:23:47;;;;;;;16.67;15.77;;;4.50;90.90;;;;;;5051443;28;20199;-76
2020/12/07 03:26:14;;;;;;;18.65;17.38;;;4.50;91.90;;;;;;5042360;28;20712;-76
2020/12/07 03:28:41;;;;;;;17.55;16.65;;;4.40;92.80;;;;;;5050091;28;20549;-76
2020/12/07 03:31:07;;;;;;;716.60;98.03;;;4.40;92.90;;;;;;5049006;28;20213;-76
2020/12/07 03:33:33;;;;;;;15.93;15.13;;;4.30;96.10;;;;;;5035586;28;20189;-76
2020/12/07 03:36:00;;;;;;;16.73;15.90;;;4.40;94.90;;;;;;5034495;28;20219;-76
2020/12/07 03:38:26;;;;;;;17.15;16.25;;;4.40;94.40;;;;;;5035966;28;20193;-76
2020/12/07 03:40:52;;;;;;;17.05;16.25;;;4.30;93.90;;;;;;5051175;28;20198;-76
2020/12/07 03:43:19;;;;;;;18.00;17.10;;;4.30;93.60;;;;;;5038589;28;20204;-76
2020/12/07 03:45:46;;;;;;;18.80;17.63;;;4.30;93.30;;;;;;5034461;28;20217;-76
2020/12/07 03:48:12;;;;;;;17.10;16.20;;;4.40;92.60;;;;;;5044433;28;20193;-76
2020/12/07 03:50:38;;;;;;;18.60;17.40;;;4.40;92.40;;;;;;5050363;28;20213;-76
2020/12/07 03:53:05;;;;;;;18.38;17.40;;;4.40;92.30;;;;;;5054294;28;20561;-76
2020/12/07 03:55:31;;;;;;;1266.43;180.40;;;4.40;92.00;;;;;;5047596;28;20692;-76
2020/12/07 03:57:58;;;;;;;43.30;19.05;;;4.30;93.80;;;;;;5029782;23;20667;-76
2020/12/07 04:00:25;;;;;;;367.50;52.00;;;4.40;93.10;;;;;;5014516;28;20190;-76
2020/12/07 04:02:53;;;;;;;17.00;16.10;;;4.50;92.00;;;;;;5014502;28;20198;-76
2020/12/07 04:05:25;;;;;;;17.40;16.40;;;4.50;93.40;;;;;;5014120;28;20198;-76
2020/12/07 04:07:51;;;;;;;17.70;16.73;;;4.40;93.50;;;;;;4994744;28;20199;-76
2020/12/07 04:10:18;;;;;;;17.40;16.50;;;4.40;93.90;;;;;;4994716;28;20309;-76
2020/12/07 04:12:44;;;;;;;17.05;16.17;;;4.30;93.20;;;;;;4994750;28;20206;-76
2020/12/07 04:15:10;;;;;;;17.80;16.90;;;4.30;92.90;;;;;;4994307;28;20197;-76
2020/12/07 04:17:37;;;;;;;59.00;20.40;;;4.40;92.40;;;;;;4994540;28;20225;-76
2020/12/07 04:20:04;;;;;;;17.42;16.52;;;4.40;91.90;;;;;;4994566;28;20195;-77
2020/12/07 04:22:30;;;;;;;17.63;16.67;;;4.40;92.30;;;;;;4994358;28;20190;-76
2020/12/07 04:24:57;;;;;;;17.98;16.98;;;4.40;92.20;;;;;;4993099;28;20186;-76
2020/12/07 04:27:23;;;;;;;17.75;16.75;;;4.50;91.70;;;;;;4993764;28;20608;-76
2020/12/07 04:29:50;;;;;;;15.43;14.70;;;4.40;91.60;;;;;;4994156;28;20226;-76
2020/12/07 04:32:16;;;;;;;17.80;16.88;;;4.40;92.50;;;;;;4993842;28;20190;-76
2020/12/07 04:34:43;;;;;;;18.17;17.17;;;4.30;92.00;;;;;;4994325;28;20660;-76
2020/12/07 04:37:10;;;;;;;18.27;17.17;;;4.40;92.10;;;;;;4993955;28;20218;-76
2020/12/07 04:39:36;;;;;;;16.70;15.90;;;4.40;92.00;;;;;;4993983;28;20199;-76
2020/12/07 04:42:03;;;;;;;15.07;14.27;;;4.40;91.50;;;;;;4993909;28;20559;-76
2020/12/07 04:44:30;;;;;;;17.80;16.90;;;4.50;91.20;;;;;;4994190;28;20202;-76
2020/12/07 04:46:59;;;;;;;18.42;17.52;;;4.60;90.70;;;;;;4993784;28;20215;-76
2020/12/07 04:49:29;;;;;;;16.77;15.88;;;4.50;90.80;;;;;;4993761;28;20195;-77
2020/12/07 04:51:55;;;;;;;16.90;16.10;;;4.50;91.20;;;;;;4994113;28;20214;-76
2020/12/07 04:54:25;;;;;;;17.05;16.15;;;4.60;90.80;;;;;;4993944;28;20225;-76
2020/12/07 04:56:51;;;;;;;17.65;16.55;;;4.60;90.70;;;;;;4993596;28;20223;-76
2020/12/07 04:59:20;;;;;;;16.25;15.45;;;4.60;90.90;;;;;;4993561;28;20190;-76
2020/12/07 05:01:46;;;;;;;40.00;18.67;;;4.40;92.40;;;;;;4993737;28;20318;-76
2020/12/07 05:04:13;;;;;;;16.83;15.93;;;4.40;94.80;;;;;;4993444;28;20282;-76
2020/12/07 05:06:39;;;;;;;17.40;16.17;;;4.40;93.60;;;;;;4992681;28;20222;-76
2020/12/07 05:09:05;;;;;;;18.48;17.48;;;4.40;93.50;;;;;;4993677;28;20195;-76
2020/12/07 05:11:32;;;;;;;19.85;18.85;;;4.50;92.90;;;;;;4993144;28;20583;-76
2020/12/07 05:14:04;;;;;;;19.75;18.05;;;4.50;92.50;;;;;;4993176;28;20195;-76
2020/12/07 05:16:30;;;;;;;18.73;17.70;;;4.50;92.20;;;;;;4993206;28;20281;-76
2020/12/07 05:18:56;;;;;;;18.65;17.50;;;4.60;91.60;;;;;;4993545;28;20271;-76
2020/12/07 05:21:23;;;;;;;18.95;17.92;;;4.50;91.60;;;;;;4993475;28;20229;-76
2020/12/07 05:23:51;;;;;;;18.33;17.23;;;4.50;91.50;;;;;;4993087;28;20195;-76
2020/12/07 05:26:18;;;;;;;18.50;17.50;;;4.50;91.80;;;;;;4993317;28;20218;-76
2020/12/07 05:28:50;;;;;;;17.00;16.10;;;4.60;91.40;;;;;;4993320;28;20203;-76
2020/12/07 05:31:18;;;;;;;17.00;16.10;;;4.50;91.70;;;;;;4993135;28;20222;-76
2020/12/07 05:33:46;;;;;;;17.52;16.42;;;4.50;92.30;;;;;;4992868;28;20195;-76
2020/12/07 05:36:12;;;;;;;17.60;16.60;;;4.50;92.00;;;;;;4993197;28;20585;-76
2020/12/07 05:38:39;;;;;;;17.55;16.55;;;4.50;91.80;;;;;;4993148;28;20198;-76
2020/12/07 05:41:07;;;;;;;17.75;16.75;;;4.40;91.70;;;;;;4993338;28;20199;-76
2020/12/07 05:43:33;;;;;;;18.45;17.13;;;4.30;92.40;;;;;;4993123;28;20202;-76
2020/12/07 05:46:01;;;;;;;18.25;17.05;;;4.30;92.40;;;;;;4992991;28;20665;-76
2020/12/07 05:48:30;;;;;;;18.88;17.77;;;4.40;92.50;;;;;;4993276;28;20206;-76
2020/12/07 05:51:00;;;;;;;154.35;30.35;;;4.40;92.20;;;;;;4993162;28;20556;-76
2020/12/07 05:53:27;;;;;;;1999.90;316.75;;;4.40;94.20;;;;;;4993049;28;20202;-76
2020/12/07 05:55:55;;;;;;;16.55;15.55;;;4.40;94.50;;;;;;4992943;28;20225;-76
2020/12/07 05:58:22;;;;;;;18.00;16.80;;;4.40;97.50;;;;;;4992776;28;20223;-76
2020/12/07 06:00:51;;;;;;;17.65;16.75;;;4.40;95.80;;;;;;4992987;28;20190;-76
2020/12/07 06:03:19;;;;;;;17.10;16.20;;;4.40;94.90;;;;;;4993401;28;20209;-77
2020/12/07 06:05:46;;;;;;;128.10;27.88;;;4.40;94.70;;;;;;4993460;28;20575;-76
2020/12/07 06:08:19;;;;;;;17.40;16.10;;;4.50;94.40;;;;;;4992973;28;20198;-76
2020/12/07 06:10:50;;;;;;;17.98;16.98;;;4.40;96.80;;;;;;4993132;28;20227;-76
2020/12/07 06:13:20;;;;;;;19.08;18.02;;;4.30;95.30;;;;;;4993230;28;20210;-76
2020/12/07 06:15:47;;;;;;;18.33;17.25;;;4.40;95.20;;;;;;4992803;28;20764;-77
2020/12/07 06:18:29;;;;;;;18.15;17.15;;;4.20;94.40;;;;;;4993682;28;20648;-76
2020/12/07 06:20:57;;;;;;;16.67;15.70;;;4.30;94.30;;;;;;4996593;28;20743;-76
2020/12/07 06:23:34;;;;;;;18.42;17.33;;;4.20;95.60;;;;;;4996814;28;20739;-76
2020/12/07 06:26:02;;;;;;;17.98;16.95;;;4.20;95.70;;;;;;4996503;28;20225;-76
2020/12/07 06:28:33;;;;;;;18.98;17.67;;;4.20;94.50;;;;;;4996499;28;20233;-76
2020/12/07 06:31:07;;;;;;;17.10;16.02;;;4.20;94.10;;;;;;4996313;28;20233;-77
2020/12/07 06:33:45;;;;;;;18.30;17.10;;;4.10;95.00;;;;;;4996479;28;20199;-77
2020/12/07 06:36:27;;;;;;;17.33;15.93;;;4.10;95.00;;;;;;4996288;28;20230;-76
2020/12/07 06:38:56;;;;;;;19.08;17.80;;;4.00;94.80;;;;;;4994416;28;20195;-76
2020/12/07 06:41:36;;;;;;;17.70;16.55;;;4.00;94.80;;;;;;4996377;28;20205;-76
2020/12/07 06:44:06;;;;;;;20.38;19.17;;;4.00;94.70;;;;;;4996338;28;20221;-78
2020/12/07 06:46:56;;;;;;;20.40;19.10;;;4.00;94.60;;;;;;4995656;28;20246;-76
2020/12/07 06:49:36;;;;;;;19.77;18.58;;;4.10;94.10;;;;;;4996170;28;20206;-76
2020/12/07 06:52:11;;;;;;;53.20;23.58;;;4.00;93.80;;;;;;4995650;28;20301;-76
2020/12/07 06:57:28;;;;;;;19.90;18.38;;;4.10;94.00;;;;;;4996041;28;20300;-78
2020/12/07 07:00:00;;;;;;;20.33;18.92;;;4.20;93.80;;;;;;4995848;28;20217;-76
2020/12/07 07:02:27;;;;;;;78.68;24.40;;;4.20;93.10;;;;;;4995738;28;20600;-76
2020/12/07 07:04:56;;;;;;;19.63;18.23;;;4.20;93.80;;;;;;4995672;28;20555;-76
2020/12/07 07:07:23;;;;;;;20.08;18.67;;;4.20;93.60;;;;;;4995297;28;20358;-76
2020/12/07 07:09:50;;;;;;;17.48;16.38;;;4.10;93.90;;;;;;4995729;28;20194;-77
2020/12/07 07:12:17;;;;;;;18.95;17.60;;;4.10;94.70;;;;;;4998141;28;20219;-78
2020/12/07 07:14:47;;;;;;;18.02;16.80;;;4.20;95.40;;;;;;4996081;28;20656;-76
2020/12/07 07:17:14;;;;;;;18.55;17.25;;;4.30;94.90;;;;;;4995133;28;20221;-76
2020/12/07 07:19:40;;;;;;;19.20;17.77;;;4.30;95.00;;;;;;4995734;28;20194;-76
2020/12/07 07:22:07;;;;;;;18.80;17.35;;;4.30;94.70;;;;;;4995690;28;20202;-76
2020/12/07 07:24:44;;;;;;;19.80;18.02;;;4.30;94.70;;;;;;4995507;28;20214;-76
2020/12/07 07:29:55;;;;;;;19.38;17.58;;;4.40;94.10;;;;;;4983158;28;20277;-76
2020/12/07 07:32:22;;;;;;;21.73;20.23;;;4.50;94.00;;;;;;4994993;28;20211;-76
2020/12/07 07:34:49;;;;;;;23.25;21.30;;;4.50;93.60;;;;;;4995427;28;20529;-76
2020/12/07 07:37:17;;;;;;;21.52;20.13;;;4.40;93.40;;;;;;4994673;28;20215;-76
2020/12/07 07:39:44;;;;;;;19.75;18.35;;;4.40;93.60;;;;;;4995295;28;20567;-76
2020/12/07 07:42:12;;;;;;;19.13;17.77;;;4.50;94.10;;;;;;4995001;28;20205;-78
2020/12/07 07:44:40;;;;;;;559.35;72.30;;;4.60;93.70;;;;;;4995435;28;20209;-76
2020/12/07 07:47:11;;;;;;;19.30;17.70;;;4.60;94.20;;;;;;4994591;28;20688;-76
2020/12/07 07:50:02;;;;;;;886.78;118.75;;;4.70;94.20;;;;;;5002946;23;20277;-76
2020/12/07 08:15:36;;;;;;;20.75;19.45;;;5.40;91.80;;;;;;4975304;28;20246;-76
2020/12/07 08:18:03;;;;;;;22.67;21.05;;;5.50;90.80;;;;;;4974658;28;20197;-76
2020/12/07 08:20:32;;;;;;;22.33;20.92;;;5.60;89.40;;;;;;4959274;28;20204;-76
2020/12/07 08:23:00;;;;;;;22.95;21.35;;;5.60;89.60;;;;;;4956034;29;20208;-76
2020/12/07 08:25:49;;;;;;;24.48;22.50;;;5.70;89.10;;;;;;4955129;28;20257;-76
2020/12/07 08:28:17;;;;;;;22.13;20.83;;;5.60;88.40;;;;;;4956719;28;20572;-76
2020/12/07 08:31:00;;;;;;;21.85;20.50;;;5.70;88.20;;;;;;4955399;29;20833;-76
2020/12/07 08:33:26;;;;;;;20.17;18.92;;;5.70;88.40;;;;;;4963595;28;20215;-76
2020/12/07 08:35:54;;;;;;;21.23;19.95;;;5.70;88.50;;;;;;4974802;28;20229;-77
2020/12/07 08:38:30;;;;;;;281.75;44.15;;;5.70;90.00;;;;;;4966950;28;20260;-76
2020/12/07 08:41:07;;;;;;;19.83;18.52;;;5.70;90.10;;;;;;4956187;28;20206;-76
2020/12/07 08:43:35;;;;;;;19.25;18.13;;;5.80;90.70;;;;;;4964125;28;20231;-76
2020/12/07 08:46:02;;;;;;;20.15;18.42;;;5.80;92.40;;;;;;4965768;28;20226;-76
2020/12/07 08:48:28;;;;;;;477.63;69.97;;;5.80;90.90;;;;;;4961797;28;20198;-77
2020/12/07 08:50:55;;;;;;;42.05;19.60;;;5.90;92.60;;;;;;4974510;28;20219;-76
2020/12/07 08:53:22;;;;;;;342.48;50.42;;;6.00;95.50;;;;;;4974730;28;20199;-76
2020/12/07 08:55:49;;;;;;;19.42;18.33;;;6.10;91.60;;;;;;4974325;28;20219;-76
2020/12/07 08:58:16;;;;;;;20.95;19.35;;;6.10;92.20;;;;;;4970168;28;20188;-76
2020/12/07 09:00:43;;;;;;;20.45;19.25;;;6.20;90.80;;;;;;4955140;28;20203;-77
2020/12/07 09:03:09;;;;;;;20.23;18.90;;;6.30;88.80;;;;;;4974375;28;20203;-76
2020/12/07 09:05:37;;;;;;;54.58;22.98;;;6.20;89.30;;;;;;4964698;28;20548;-76
2020/12/07 09:08:04;;;;;;;19.50;18.40;;;6.20;91.00;;;;;;4959173;28;20199;-76
2020/12/07 09:10:31;;;;;;;23.98;21.35;;;6.30;89.20;;;;;;4974213;28;20202;-76
2020/12/07 09:12:57;;;;;;;21.65;20.45;;;6.40;87.80;;;;;;4955991;28;20200;-76
2020/12/07 09:15:24;;;;;;;22.65;21.15;;;6.50;86.40;;;;;;4954769;29;20614;-77
2020/12/07 09:17:51;;;;;;;22.60;20.90;;;6.40;85.80;;;;;;4957037;28;20222;-76
2020/12/07 09:20:17;;;;;;;21.95;20.63;;;6.50;85.50;;;;;;4974204;28;20557;-76
2020/12/07 09:22:43;;;;;;;22.45;21.25;;;6.50;84.90;;;;;;4974208;28;20210;-76
2020/12/07 09:25:10;;;;;;;21.95;20.70;;;6.60;83.90;;;;;;4973757;28;20294;-77
2020/12/07 09:27:36;;;;;;;22.80;21.50;;;6.60;83.50;;;;;;4961512;28;20222;-76
2020/12/07 09:30:03;;;;;;;23.35;21.85;;;6.80;82.90;;;;;;4954555;29;20200;-76
2020/12/07 09:32:30;;;;;;;22.90;21.52;;;6.90;82.50;;;;;;4954612;29;20216;-76
2020/12/07 09:34:56;;;;;;;25.35;23.08;;;7.00;81.80;;;;;;4970935;28;20283;-76
2020/12/07 09:37:23;;;;;;;23.30;21.90;;;6.90;81.40;;;;;;4973660;28;20223;-76
2020/12/07 09:39:49;;;;;;;23.05;21.75;;;7.00;81.40;;;;;;4973924;28;20199;-76
2020/12/07 09:42:15;;;;;;;22.50;20.98;;;7.10;81.00;;;;;;4967159;28;20300;-76
2020/12/07 09:44:42;;;;;;;23.50;22.10;;;6.90;81.60;;;;;;4954685;29;20224;-76
2020/12/07 09:47:11;;;;;;;23.25;21.95;;;7.00;81.50;;;;;;4954333;28;20220;-76
2020/12/07 09:49:38;;;;;;;21.90;20.48;;;7.00;81.50;;;;;;4954606;29;20204;-76
2020/12/07 09:52:05;;;;;;;22.90;21.60;;;7.10;81.10;;;;;;4959306;28;20222;-76
2020/12/07 09:54:36;;;;;;;22.60;21.27;;;7.20;80.60;;;;;;4963257;28;20195;-76
2020/12/07 09:57:03;;;;;;;22.40;21.17;;;7.20;80.70;;;;;;4958279;28;20331;-76
2020/12/07 09:59:29;;;;;;;21.95;20.60;;;7.30;80.60;;;;;;4958467;29;20231;-76
2020/12/07 10:01:56;;;;;;;20.92;19.83;;;7.40;80.10;;;;;;4962037;28;20183;-76
2020/12/07 10:04:22;;;;;;;20.88;19.67;;;7.60;79.30;;;;;;4977767;28;20207;-76
2020/12/07 10:06:49;;;;;;;22.70;21.50;;;7.60;79.20;;;;;;4977577;28;20219;-76
2020/12/07 10:09:16;;;;;;;21.98;20.77;;;7.60;79.10;;;;;;4970623;28;20196;-76
2020/12/07 10:11:42;;;;;;;22.02;20.75;;;7.60;79.20;;;;;;4958194;29;20220;-76
2020/12/07 10:14:09;;;;;;;22.30;20.90;;;7.50;79.60;;;;;;4958223;29;20200;-76
2020/12/07 10:16:35;;;;;;;24.08;22.50;;;7.50;79.90;;;;;;4958034;28;20227;-76
2020/12/07 10:19:02;;;;;;;23.67;22.25;;;7.60;79.60;;;;;;4973410;28;20195;-77
2020/12/07 10:21:28;;;;;;;23.45;21.92;;;7.60;79.50;;;;;;4958008;29;20658;-76
2020/12/07 10:23:55;;;;;;;22.02;20.83;;;7.70;79.00;;;;;;4974580;28;20195;-76
2020/12/07 10:26:23;;;;;;;22.65;21.38;;;7.70;78.60;;;;;;4977008;28;20247;-76
2020/12/07 10:28:50;;;;;;;22.73;21.42;;;7.60;78.90;;;;;;4977069;28;20204;-76
2020/12/07 10:31:19;;;;;;;23.20;21.90;;;7.60;78.90;;;;;;4976384;28;20223;-76
2020/12/07 10:33:45;;;;;;;21.60;20.40;;;7.60;78.40;;;;;;4977184;28;20196;-76
2020/12/07 10:36:11;;;;;;;22.60;21.30;;;7.60;78.90;;;;;;4976962;28;20231;-76
2020/12/07 10:38:38;;;;;;;24.05;22.63;;;7.60;78.70;;;;;;4977027;28;20553;-76
2020/12/07 10:41:05;;;;;;;23.10;21.70;;;7.60;78.90;;;;;;4976678;28;20187;-76
2020/12/07 10:43:31;;;;;;;23.95;22.45;;;7.80;77.90;;;;;;4976965;28;20252;-76
2020/12/07 10:45:58;;;;;;;24.45;23.05;;;7.90;77.40;;;;;;4976816;28;20220;-76
2020/12/07 10:48:24;;;;;;;23.70;22.33;;;7.90;77.20;;;;;;4976677;28;20203;-77
2020/12/07 10:50:50;;;;;;;22.98;21.67;;;8.00;77.10;;;;;;4976454;28;20217;-77
2020/12/07 10:53:17;;;;;;;22.88;21.58;;;7.90;77.70;;;;;;4976589;28;20203;-77
2020/12/07 10:55:43;;;;;;;22.13;20.83;;;7.90;78.50;;;;;;4976575;28;20257;-77
2020/12/07 10:58:10;;;;;;;23.38;21.95;;;7.80;81.20;;;;;;4976626;28;20210;-76
2020/12/07 11:00:37;;;;;;;23.95;22.55;;;7.90;79.70;;;;;;4976224;28;20198;-76
2020/12/07 11:03:04;;;;;;;23.40;22.10;;;8.10;77.80;;;;;;4976392;28;20198;-77
2020/12/07 11:05:31;;;;;;;24.27;23.08;;;8.20;78.40;;;;;;4975111;28;20215;-77
2020/12/07 11:07:57;;;;;;;23.00;21.60;;;8.20;77.40;;;;;;4976263;28;20605;-77
2020/12/07 11:10:24;;;;;;;23.10;21.83;;;8.20;77.60;;;;;;4976208;28;20202;-76
2020/12/07 11:12:57;;;;;;;23.88;22.58;;;8.20;80.60;;;;;;4976390;28;20226;-76
2020/12/07 11:15:25;;;;;;;24.73;23.33;;;8.30;80.00;;;;;;4976148;28;20192;-77
2020/12/07 11:17:51;;;;;;;24.35;23.05;;;8.30;78.40;;;;;;4976144;28;20223;-77
2020/12/07 11:20:17;;;;;;;24.60;23.20;;;8.30;77.60;;;;;;4976325;28;20207;-76
2020/12/07 11:22:44;;;;;;;24.83;23.42;;;8.30;77.00;;;;;;4976300;28;20198;-76
2020/12/07 11:25:10;;;;;;;25.38;23.98;;;8.50;76.40;;;;;;4975499;28;20200;-77
2020/12/07 11:27:37;;;;;;;25.38;23.73;;;8.40;75.30;;;;;;4975498;28;20701;-77
2020/12/07 11:30:03;;;;;;;24.65;23.15;;;8.60;75.80;;;;;;4976033;28;20210;-77
2020/12/07 11:32:31;;;;;;;24.05;22.85;;;8.70;76.80;;;;;;4976004;28;20226;-76
2020/12/07 11:34:57;;;;;;;24.40;23.05;;;8.70;77.00;;;;;;4976225;28;20195;-76
2020/12/07 11:37:23;;;;;;;23.75;22.45;;;8.70;74.60;;;;;;4975750;28;20231;-77
2020/12/07 11:39:53;;;;;;;24.92;23.52;;;8.50;74.40;;;;;;4975768;28;20196;-76
2020/12/07 11:42:39;;;;;;;24.40;23.05;;;8.60;74.10;;;;;;4976252;28;20604;-76
2020/12/07 11:45:05;;;;;;;23.52;22.23;;;8.60;74.80;;;;;;4976205;28;20222;-77
2020/12/07 11:47:32;;;;;;;23.35;22.05;;;8.60;75.30;;;;;;4975602;28;20229;-76
2020/12/07 11:49:59;;;;;;;24.40;22.90;;;8.60;75.10;;;;;;4975707;28;20208;-76
2020/12/07 11:52:25;;;;;;;24.38;22.98;;;8.60;74.90;;;;;;4975613;28;20223;-76
2020/12/07 11:54:51;;;;;;;24.50;23.20;;;8.60;74.90;;;;;;4975686;28;20206;-76
2020/12/07 11:57:18;;;;;;;24.02;22.63;;;8.60;74.20;;;;;;4975465;28;20227;-76
2020/12/07 11:59:44;;;;;;;24.40;23.00;;;8.40;74.10;;;;;;4975529;28;20200;-77
2020/12/07 12:02:10;;;;;;;25.17;23.52;;;8.30;74.30;;;;;;4975159;28;20192;-76
2020/12/07 12:04:37;;;;;;;25.52;24.13;;;8.30;73.90;;;;;;4975473;28;20562;-76
2020/12/07 12:07:04;;;;;;;24.27;22.98;;;8.30;73.30;;;;;;4975218;28;20223;-77
2020/12/07 12:09:30;;;;;;;24.30;22.70;;;8.20;73.60;;;;;;4975076;28;20565;-77
2020/12/07 12:11:56;;;;;;;22.92;21.70;;;8.30;73.10;;;;;;4975183;28;20222;-76
2020/12/07 12:14:23;;;;;;;23.83;22.52;;;8.30;72.10;;;;;;4975333;28;20205;-76
2020/12/07 12:16:50;;;;;;;24.38;23.08;;;8.20;73.80;;;;;;4974917;28;20233;-76
2020/12/07 12:19:16;;;;;;;25.60;24.10;;;8.10;73.00;;;;;;4975002;28;20195;-76
2020/12/07 12:21:43;;;;;;;23.65;22.15;;;8.00;73.30;;;;;;4975072;28;20213;-76
2020/12/07 12:24:10;;;;;;;23.67;22.48;;;7.90;74.10;;;;;;4974992;28;20665;-77
2020/12/07 12:26:37;;;;;;;24.30;22.92;;;8.00;74.30;;;;;;4974966;28;20533;-76
2020/12/07 12:29:04;;;;;;;25.33;24.00;;;7.80;74.70;;;;;;4974570;28;20203;-77
2020/12/07 12:31:31;;;;;;;25.20;23.80;;;7.80;74.90;;;;;;4974709;28;20557;-77
2020/12/07 12:33:57;;;;;;;24.20;22.90;;;7.90;75.40;;;;;;4974960;28;20187;-76
2020/12/07 12:36:25;;;;;;;24.85;23.35;;;7.90;74.90;;;;;;4974636;28;20713;-77
2020/12/07 12:38:53;;;;;;;24.40;22.85;;;7.80;75.30;;;;;;4975520;28;20203;-76
2020/12/07 12:41:20;;;;;;;24.02;22.70;;;7.80;75.00;;;;;;4974741;28;20195;-76
2020/12/07 12:43:47;;;;;;;24.30;22.85;;;7.90;74.60;;;;;;4974973;28;20203;-76
2020/12/07 12:46:14;;;;;;;26.52;24.70;;;7.80;74.90;;;;;;4974423;28;20803;-76
2020/12/07 12:48:41;;;;;;;25.30;23.90;;;7.70;75.30;;;;;;4974429;28;20215;-77
2020/12/07 12:51:09;;;;;;;24.35;23.05;;;7.70;76.10;;;;;;4974167;28;20220;-76
2020/12/07 12:53:36;;;;;;;25.17;23.67;;;7.60;76.00;;;;;;4974640;28;20560;-76
2020/12/07 12:56:06;;;;;;;23.65;22.35;;;7.50;76.40;;;;;;4974310;28;20616;-76
2020/12/07 12:58:33;;;;;;;25.15;23.60;;;7.40;77.00;;;;;;4974526;28;20203;-76
2020/12/07 13:00:59;;;;;;;24.90;23.60;;;7.40;77.20;;;;;;4973890;28;20199;-77
2020/12/07 13:03:26;;;;;;;24.45;23.25;;;7.50;77.60;;;;;;4974397;28;20199;-76
2020/12/07 13:05:53;;;;;;;24.17;22.77;;;7.50;77.20;;;;;;4974160;28;20220;-76